Time;durP1;ratioP1;P1;durP2;ratioP2;P2;SDS_P1;SDS_P2;PMS_P1;PMS_P2;Temp;Humidity;BMP_temperature;BMP_pressure;BME280_temperature;BME280_humidity;BME280_pressure;Samples;Min_cycle;Max_cycle;Signal;HPM_P1;HPM_P2
2023/12/11 00:00:16;;;;;;;11.83;7.30;;;;;;;-143.21;79.59;73361.38;5029690;28;20205;-79
2023/12/11 00:02:43;;;;;;;11.27;7.30;;;;;;;-143.21;79.13;73345.50;5015574;28;20203;-79
2023/12/11 00:05:10;;;;;;;11.63;7.40;;;;;;;-143.21;77.90;73339.56;5030503;28;20253;-78
2023/12/11 00:07:37;;;;;;;13.33;7.60;;;;;;;-143.21;78.45;73359.41;5020013;28;20195;-78
2023/12/11 00:10:06;;;;;;;15.23;8.90;;;;;;;-143.21;80.12;73373.28;5025938;28;20198;-78
2023/12/11 00:12:33;;;;;;;13.40;8.17;;;;;;;-143.21;80.43;73363.38;5031483;28;20236;-78
2023/12/11 00:15:00;;;;;;;13.27;8.53;;;;;;;-143.21;80.45;73357.41;5031808;28;20210;-78
2023/12/11 00:17:28;;;;;;;12.87;8.43;;;;;;;-143.21;80.63;73345.50;5028115;28;20239;-79
2023/12/11 00:19:56;;;;;;;11.63;7.53;;;;;;;-143.21;79.36;73337.56;5012676;28;20195;-78
2023/12/11 00:22:23;;;;;;;13.43;8.00;;;;;;;-143.21;79.08;73341.53;5012473;28;20221;-78
2023/12/11 00:24:50;;;;;;;13.37;8.20;;;;;;;-143.21;79.47;73325.69;5012426;28;20223;-78
2023/12/11 00:27:18;;;;;;;13.87;8.30;;;;;;;-143.21;79.23;73321.72;5011771;28;20666;-78
2023/12/11 00:29:45;;;;;;;14.70;7.87;;;;;;;-143.21;78.84;73311.78;5011931;28;20207;-78
2023/12/11 00:32:12;;;;;;;12.30;7.77;;;;;;;-143.21;78.75;73303.84;5011930;28;20626;-78
2023/12/11 00:34:39;;;;;;;13.47;7.60;;;;;;;-143.21;77.72;73297.91;5011829;28;20195;-78
2023/12/11 00:37:06;;;;;;;11.37;7.37;;;;;;;-143.21;78.00;73284.00;5026261;28;20201;-77
2023/12/11 00:39:32;;;;;;;12.40;8.00;;;;;;;-143.21;77.49;73303.84;5031945;28;20206;-77
2023/12/11 00:41:59;;;;;;;11.57;7.30;;;;;;;-143.21;77.66;73307.81;5030326;28;20252;-76
2023/12/11 00:44:28;;;;;;;12.73;8.20;;;;;;;-143.21;78.16;73313.78;5031489;28;20229;-77
2023/12/11 00:46:55;;;;;;;13.10;8.50;;;;;;;-143.21;78.16;73331.63;5031208;28;20205;-77
2023/12/11 00:49:22;;;;;;;15.67;8.07;;;;;;;-143.21;78.19;73357.41;5031123;28;20202;-77
2023/12/11 00:51:52;;;;;;;11.53;7.70;;;;;;;-143.21;79.85;73403.03;5031651;28;20580;-77
2023/12/11 00:54:19;;;;;;;11.73;7.83;;;;;;;-143.21;81.12;73389.16;5031929;28;20177;-77
2023/12/11 00:56:47;;;;;;;15.17;7.83;;;;;;;-143.21;81.18;73363.38;5032031;28;20198;-77
2023/12/11 00:59:14;;;;;;;11.97;7.73;;;;;;;-143.21;80.28;73367.34;5030996;28;20263;-77
2023/12/11 01:01:42;;;;;;;12.20;8.17;;;;;;;-143.21;80.89;73383.19;5031396;28;20207;-77
2023/12/11 01:04:09;;;;;;;11.63;7.67;;;;;;;-143.21;80.23;73359.41;5031647;28;20201;-77
2023/12/11 01:06:36;;;;;;;15.53;9.43;;;;;;;-143.21;79.40;73353.44;5031453;28;20205;-77
2023/12/11 01:09:02;;;;;;;18.37;9.57;;;;;;;-143.21;79.42;73351.47;5031725;28;20698;-77
2023/12/11 01:11:29;;;;;;;18.47;10.97;;;;;;;-143.21;79.57;73367.34;5031656;28;20202;-78
2023/12/11 01:13:56;;;;;;;16.97;10.47;;;;;;;-143.21;79.87;73385.19;5031271;28;20233;-79
2023/12/11 01:16:23;;;;;;;16.43;10.03;;;;;;;-143.21;80.23;73389.16;5031842;28;20211;-77
2023/12/11 01:18:51;;;;;;;17.77;10.10;;;;;;;-143.21;80.05;73377.25;5031477;28;20201;-78
2023/12/11 01:21:18;;;;;;;14.90;9.03;;;;;;;-143.21;79.61;73371.28;5030890;28;20201;-78
2023/12/11 01:23:45;;;;;;;20.77;9.87;;;;;;;-143.21;79.13;73351.47;5033015;28;20197;-77
2023/12/11 01:26:12;;;;;;;17.47;10.33;;;;;;;-143.21;78.00;73351.47;5035548;28;20700;-77
2023/12/11 01:28:39;;;;;;;22.23;11.33;;;;;;;-143.21;77.87;73357.41;5035659;28;20200;-77
2023/12/11 01:31:06;;;;;;;21.77;10.67;;;;;;;-143.21;77.94;73375.25;5035373;28;20199;-77
2023/12/11 01:33:33;;;;;;;20.57;10.93;;;;;;;-143.21;79.19;73389.16;5035489;28;20192;-78
2023/12/11 01:36:02;;;;;;;19.80;10.30;;;;;;;-143.21;80.05;73397.09;5035139;28;20686;-78
2023/12/11 01:38:28;;;;;;;20.87;10.33;;;;;;;-143.21;80.34;73395.09;5035295;28;20201;-78
2023/12/11 01:40:55;;;;;;;16.33;8.63;;;;;;;-143.21;80.14;73385.19;5035684;28;20202;-78
2023/12/11 01:43:22;;;;;;;16.33;8.30;;;;;;;-143.21;79.45;73371.28;5035173;28;20196;-77
2023/12/11 01:45:59;;;;;;;11.93;7.37;;;;;;;-143.21;78.66;73351.47;5034755;28;20231;-78
2023/12/11 01:48:26;;;;;;;12.10;7.10;;;;;;;-143.21;79.06;73359.41;5035270;28;20192;-78
2023/12/11 01:50:53;;;;;;;10.20;6.27;;;;;;;-143.21;78.79;73353.44;5035191;28;20684;-79
2023/12/11 01:53:21;;;;;;;11.57;7.20;;;;;;;-143.21;78.34;73339.56;5034902;28;20206;-78
2023/12/11 01:55:50;;;;;;;13.07;7.10;;;;;;;-143.21;77.95;73341.53;5035289;28;20533;-78
2023/12/11 01:58:18;;;;;;;8.30;5.90;;;;;;;-143.21;77.80;73319.72;5035078;28;20592;-79
2023/12/11 02:00:45;;;;;;;9.23;5.93;;;;;;;-143.21;77.14;73309.81;5034928;28;20201;-78
2023/12/11 02:03:12;;;;;;;8.50;5.43;;;;;;;-143.21;76.93;73309.81;5034827;28;20208;-78
2023/12/11 02:05:39;;;;;;;8.37;5.93;;;;;;;-143.21;76.96;73335.59;5035263;28;20217;-78
2023/12/11 02:08:06;;;;;;;10.47;6.33;;;;;;;-143.21;77.76;73351.47;5035071;28;20234;-78
2023/12/11 02:10:34;;;;;;;8.03;5.30;;;;;;;-143.21;79.11;73353.44;5035306;28;20200;-78
2023/12/11 02:13:01;;;;;;;7.60;5.00;;;;;;;-143.21;78.90;73347.50;5045333;28;20781;-79
2023/12/11 02:15:37;;;;;;;8.13;5.30;;;;;;;-143.21;78.46;73333.59;5044744;28;20204;-79
2023/12/11 02:18:04;;;;;;;8.03;5.13;;;;;;;-143.21;77.99;73319.72;5033483;28;20196;-79
2023/12/11 02:20:31;;;;;;;8.20;5.63;;;;;;;-143.21;77.42;73327.66;5032890;28;20288;-78
2023/12/11 02:23:01;;;;;;;9.37;5.50;;;;;;;-143.21;77.22;73319.72;5033012;28;20204;-78
2023/12/11 02:25:30;;;;;;;8.47;5.60;;;;;;;-143.21;77.48;73311.78;5032879;28;20236;-79
2023/12/11 02:27:59;;;;;;;7.83;5.30;;;;;;;-143.21;76.98;73309.81;5033151;28;20197;-79
2023/12/11 02:30:25;;;;;;;7.53;5.20;;;;;;;-143.21;76.64;73295.91;5033186;28;20214;-79
2023/12/11 02:32:52;;;;;;;8.57;5.47;;;;;;;-143.21;76.44;73301.88;5033170;28;20193;-79
2023/12/11 02:35:19;;;;;;;6.63;4.80;;;;;;;-143.21;76.09;73299.88;5032660;28;20201;-79
2023/12/11 02:37:46;;;;;;;7.13;5.13;;;;;;;-143.21;75.87;73305.84;5033591;28;20195;-79
2023/12/11 02:40:13;;;;;;;7.87;5.53;;;;;;;-143.21;76.66;73311.78;5033270;28;20193;-78
2023/12/11 02:42:46;;;;;;;8.13;5.57;;;;;;;-143.21;76.35;73319.72;5033020;28;20667;-78
2023/12/11 02:45:15;;;;;;;10.57;6.40;;;;;;;-143.21;77.06;73331.63;5032568;28;20782;-78
2023/12/11 02:47:42;;;;;;;9.67;6.20;;;;;;;-143.21;76.69;73365.34;5033030;28;20641;-78
2023/12/11 02:50:09;;;;;;;9.33;6.17;;;;;;;-143.21;77.56;73379.22;5032857;28;20201;-78
2023/12/11 02:52:36;;;;;;;12.90;7.60;;;;;;;-143.21;79.06;73393.13;5032990;28;20196;-77
2023/12/11 02:55:03;;;;;;;20.60;10.53;;;;;;;-143.21;78.96;73385.19;5032772;28;20203;-78
2023/12/11 02:57:30;;;;;;;16.07;10.10;;;;;;;-143.21;78.16;73381.22;5032791;28;20208;-78
2023/12/11 02:59:57;;;;;;;19.90;10.40;;;;;;;-143.21;77.47;73377.25;5032436;28;20200;-77
2023/12/11 03:02:25;;;;;;;19.10;9.80;;;;;;;-143.21;77.19;73377.25;5032347;28;20196;-78
2023/12/11 03:04:52;;;;;;;17.90;9.63;;;;;;;-143.21;77.75;73383.19;5033051;28;20220;-77
2023/12/11 03:07:19;;;;;;;16.17;8.90;;;;;;;-143.21;77.69;73389.16;5032418;28;20200;-78
2023/12/11 03:09:46;;;;;;;17.07;9.40;;;;;;;-143.21;77.78;73387.16;5032811;28;20196;-77
2023/12/11 03:12:13;;;;;;;19.27;9.23;;;;;;;-143.21;77.66;73385.19;4990871;28;1198049;-77
2023/12/11 03:14:39;;;;;;;17.10;9.63;;;;;;;-143.21;78.22;73383.19;5033204;28;20662;-78
2023/12/11 03:17:06;;;;;;;15.27;8.77;;;;;;;-143.21;78.03;73371.28;5033182;28;20209;-77
2023/12/11 03:19:35;;;;;;;12.60;6.97;;;;;;;-143.21;77.74;73369.31;5033395;28;20207;-77
2023/12/11 03:22:02;;;;;;;10.13;6.57;;;;;;;-143.21;77.74;73359.41;5033663;28;20196;-77
2023/12/11 03:24:29;;;;;;;9.60;6.70;;;;;;;-143.21;77.32;73369.31;5033590;28;20219;-77
2023/12/11 03:26:56;;;;;;;12.70;8.20;;;;;;;-143.21;77.25;73375.25;5033264;28;20228;-77
2023/12/11 03:29:23;;;;;;;15.90;9.93;;;;;;;-143.21;77.25;73395.09;5032841;28;20201;-78
2023/12/11 03:31:49;;;;;;;14.23;8.70;;;;;;;-143.21;78.68;73430.81;5033041;28;20197;-78
2023/12/11 03:34:16;;;;;;;15.57;9.30;;;;;;;-143.21;81.06;73430.81;5032780;28;20194;-77
2023/12/11 03:36:45;;;;;;;14.03;8.60;;;;;;;-143.21;80.32;73416.94;5032694;28;20189;-77
2023/12/11 03:39:11;;;;;;;13.30;7.60;;;;;;;-143.21;79.76;73403.03;5032398;28;20195;-77
2023/12/11 03:41:40;;;;;;;12.90;7.60;;;;;;;-143.21;79.26;73399.06;5032597;28;20199;-79
2023/12/11 03:44:06;;;;;;;10.87;7.30;;;;;;;-143.21;79.54;73410.97;5033117;28;20202;-78
2023/12/11 03:46:33;;;;;;;11.50;7.50;;;;;;;-143.21;79.45;73405.03;5032076;28;20238;-78
2023/12/11 03:49:00;;;;;;;13.00;7.80;;;;;;;-143.21;79.11;73387.16;5032682;28;20196;-78
2023/12/11 03:51:27;;;;;;;11.17;7.23;;;;;;;-143.21;78.95;73389.16;5032528;28;20207;-78
2023/12/11 03:53:56;;;;;;;12.23;7.63;;;;;;;-143.21;78.30;73389.16;5032756;28;20204;-79
2023/12/11 03:56:23;;;;;;;11.17;7.10;;;;;;;-143.21;78.68;73373.28;5032335;28;20266;-79
2023/12/11 03:58:50;;;;;;;11.90;6.87;;;;;;;-143.21;78.25;73367.34;5032474;28;20199;-78
2023/12/11 04:01:17;;;;;;;11.47;7.00;;;;;;;-143.21;77.27;73345.50;5032116;28;20204;-78
2023/12/11 04:03:43;;;;;;;13.53;7.63;;;;;;;-143.21;76.60;73347.50;5032442;28;20200;-78
2023/12/11 04:06:10;;;;;;;12.23;7.50;;;;;;;-143.21;76.42;73343.53;5032315;28;20225;-78
2023/12/11 04:08:40;;;;;;;12.27;7.17;;;;;;;-143.21;76.40;73351.47;5032230;28;20193;-79
2023/12/11 04:11:09;;;;;;;12.83;7.70;;;;;;;-143.21;77.25;73387.16;5032471;28;20191;-79
2023/12/11 04:13:36;;;;;;;13.63;7.67;;;;;;;-143.21;78.85;73381.22;5031996;28;20251;-78
2023/12/11 04:16:03;;;;;;;14.70;8.47;;;;;;;-143.21;78.21;73379.22;5032024;28;20203;-79
2023/12/11 04:18:30;;;;;;;11.83;7.53;;;;;;;-143.21;77.72;73355.44;5032298;28;20192;-79
2023/12/11 04:20:57;;;;;;;13.13;7.90;;;;;;;-143.21;76.98;73363.38;5031903;28;20667;-79
2023/12/11 04:23:24;;;;;;;15.10;8.27;;;;;;;-143.21;77.22;73355.44;5031780;28;20200;-79
2023/12/11 04:25:53;;;;;;;12.67;8.40;;;;;;;-143.21;77.11;73353.44;5032260;28;20221;-79
2023/12/11 04:28:21;;;;;;;12.87;8.27;;;;;;;-143.21;77.17;73343.53;5032392;28;20225;-79
2023/12/11 04:30:48;;;;;;;14.57;7.87;;;;;;;-143.21;76.90;73337.56;5031816;28;20201;-79
2023/12/11 04:33:15;;;;;;;15.27;8.40;;;;;;;-143.21;77.01;73341.53;5031862;28;20212;-78
2023/12/11 04:35:42;;;;;;;14.90;8.50;;;;;;;-143.21;77.47;73333.59;5031622;28;20190;-79
2023/12/11 04:38:09;;;;;;;12.67;7.77;;;;;;;-143.21;76.75;73313.78;5031765;28;20205;-79
2023/12/11 04:40:36;;;;;;;10.67;6.77;;;;;;;-143.21;76.05;73299.88;5031925;28;20198;-81
2023/12/11 04:43:03;;;;;;;11.50;6.33;;;;;;;-143.21;75.52;73307.81;5031675;28;20201;-79
2023/12/11 04:45:31;;;;;;;9.23;6.20;;;;;;;-143.21;75.93;73305.84;5031095;28;20272;-80
2023/12/11 04:47:58;;;;;;;8.70;5.80;;;;;;;-143.21;76.24;73301.88;5024304;28;20202;-80
2023/12/11 04:50:25;;;;;;;6.83;5.37;;;;;;;-143.21;75.98;73293.94;5011690;28;20203;-77
2023/12/11 04:52:51;;;;;;;9.20;5.97;;;;;;;-143.21;75.56;73313.78;5022513;28;20651;-78
2023/12/11 04:55:18;;;;;;;8.40;5.80;;;;;;;-143.21;77.66;73351.47;5031384;28;20204;-78
2023/12/11 04:57:45;;;;;;;8.37;5.40;;;;;;;-143.21;78.69;73347.50;5020969;28;20209;-79
2023/12/11 05:00:15;;;;;;;7.73;4.93;;;;;;;-143.21;79.11;73337.56;5011849;28;20516;-79
2023/12/11 05:02:47;;;;;;;7.57;5.33;;;;;;;-143.21;78.39;73323.69;5011458;28;20297;-79
2023/12/11 05:05:16;;;;;;;9.00;6.57;;;;;;;-143.21;78.69;73309.81;5011244;28;20202;-78
2023/12/11 05:07:43;;;;;;;8.73;6.37;;;;;;;-143.21;78.04;73297.91;5022529;28;20309;-78
2023/12/11 05:10:10;;;;;;;9.30;5.93;;;;;;;-143.21;77.45;73295.91;5031140;28;20200;-77
2023/12/11 05:12:37;;;;;;;8.13;5.77;;;;;;;-143.21;76.95;73272.13;5030903;28;20233;-78
2023/12/11 05:15:04;;;;;;;9.57;6.03;;;;;;;-143.21;75.47;73256.25;5031319;28;20212;-78
2023/12/11 05:17:31;;;;;;;8.87;5.60;;;;;;;-143.21;75.84;73256.25;5030609;28;20552;-77
2023/12/11 05:20:00;;;;;;;9.43;5.93;;;;;;;-143.21;75.43;73256.25;5031488;28;20198;-78
2023/12/11 05:22:26;;;;;;;7.60;5.73;;;;;;;-143.21;75.00;73256.25;5031577;28;20193;-78
2023/12/11 05:24:53;;;;;;;9.17;5.70;;;;;;;-143.21;75.07;73264.19;5030875;28;20198;-84
2023/12/11 05:27:20;;;;;;;11.53;6.07;;;;;;;-143.21;75.03;73262.19;5029355;28;20228;-77
2023/12/11 05:29:47;;;;;;;9.87;6.10;;;;;;;-143.21;74.59;73274.09;5029505;28;20194;-78
2023/12/11 05:32:14;;;;;;;11.70;6.87;;;;;;;-143.21;74.28;73276.06;5021039;28;20207;-78
2023/12/11 05:34:41;;;;;;;10.33;6.30;;;;;;;-143.21;74.21;73282.03;5030827;28;20197;-77
2023/12/11 05:37:09;;;;;;;10.20;6.00;;;;;;;-143.21;73.66;73278.06;5030434;28;20201;-77
2023/12/11 05:39:36;;;;;;;14.07;7.70;;;;;;;-143.21;73.72;73286.00;5030836;28;20204;-76
2023/12/11 05:42:03;;;;;;;14.73;8.17;;;;;;;-143.21;74.55;73311.78;5030473;28;20195;-77
2023/12/11 05:44:32;;;;;;;10.03;6.50;;;;;;;-143.21;74.71;73315.75;5027769;28;20281;-78
2023/12/11 05:46:59;;;;;;;9.47;6.60;;;;;;;-143.21;74.58;73319.72;5028769;28;20597;-76
2023/12/11 05:49:26;;;;;;;13.30;7.90;;;;;;;-143.21;74.14;73311.78;5030317;28;20206;-77
2023/12/11 05:52:16;;;;;;;13.20;8.30;;;;;;;-143.21;74.62;73301.88;5032967;28;20196;-75
2023/12/11 05:54:43;;;;;;;12.67;8.17;;;;;;;-143.21;74.63;73299.88;5031157;28;20214;-76
2023/12/11 05:57:10;;;;;;;17.03;7.33;;;;;;;-143.21;74.72;73299.88;5018529;28;20213;-75
2023/12/11 05:59:37;;;;;;;14.90;7.27;;;;;;;-143.21;74.34;73291.94;5017155;28;20714;-77
2023/12/11 06:02:04;;;;;;;11.27;7.40;;;;;;;-143.21;74.16;73293.94;5031236;28;20263;-76
2023/12/11 06:04:31;;;;;;;14.17;8.40;;;;;;;-143.21;74.40;73286.00;5032409;28;20729;-77
2023/12/11 06:06:58;;;;;;;17.07;8.90;;;;;;;-143.21;74.21;73272.13;5033161;28;20246;-76
2023/12/11 06:09:26;;;;;;;16.70;9.60;;;;;;;-143.21;73.86;73276.06;5033441;28;20201;-77
2023/12/11 06:11:53;;;;;;;18.27;10.73;;;;;;;-143.21;74.12;73268.16;5036075;28;20205;-76
2023/12/11 06:14:20;;;;;;;19.30;10.50;;;;;;;-143.21;74.19;73270.13;5036947;28;20197;-76
2023/12/11 06:16:46;;;;;;;21.70;13.00;;;;;;;-143.21;74.29;73270.13;5039305;28;20221;-76
2023/12/11 06:19:13;;;;;;;22.20;11.40;;;;;;;-143.21;73.96;73276.06;5038588;28;20198;-76
2023/12/11 06:21:40;;;;;;;24.63;11.90;;;;;;;-143.21;73.65;73270.13;5038465;28;20657;-76
2023/12/11 06:24:08;;;;;;;24.67;12.83;;;;;;;-143.21;73.83;73284.00;5038168;28;20235;-77
2023/12/11 06:26:36;;;;;;;24.20;12.90;;;;;;;-143.21;74.09;73293.94;5034831;28;20614;-76
2023/12/11 06:29:03;;;;;;;21.93;11.67;;;;;;;-143.21;74.27;73293.94;5034856;28;20205;-76
2023/12/11 06:31:31;;;;;;;18.90;10.90;;;;;;;-143.21;74.62;73305.84;5033510;28;20202;-76
2023/12/11 06:33:58;;;;;;;18.93;10.80;;;;;;;-143.21;75.42;73307.81;5033886;28;20281;-76
2023/12/11 06:36:25;;;;;;;18.77;10.77;;;;;;;-143.21;75.17;73315.75;5033989;28;20201;-77
2023/12/11 06:38:52;;;;;;;15.27;10.10;;;;;;;-143.21;75.87;73315.75;5033616;28;20743;-77
2023/12/11 06:41:18;;;;;;;16.77;9.90;;;;;;;-143.21;76.57;73313.78;5033468;28;20203;-76
2023/12/11 06:43:48;;;;;;;21.60;10.47;;;;;;;-143.21;76.58;73313.78;5033727;28;20205;-77
2023/12/11 06:46:16;;;;;;;14.53;8.67;;;;;;;-143.21;75.80;73295.91;5034199;28;20215;-78
2023/12/11 06:48:43;;;;;;;14.77;8.80;;;;;;;-143.21;74.99;73293.94;5033769;28;20675;-78
2023/12/11 06:51:10;;;;;;;19.40;10.03;;;;;;;-143.21;75.30;73293.94;5033469;28;20194;-77
2023/12/11 06:53:37;;;;;;;20.43;10.83;;;;;;;-143.21;74.86;73280.03;5034071;28;20209;-77
2023/12/11 06:56:04;;;;;;;24.10;11.63;;;;;;;-143.21;74.07;73278.06;5029705;28;20197;-77
2023/12/11 06:58:31;;;;;;;21.43;9.87;;;;;;;-143.21;74.34;73291.94;5033006;28;20205;-77
2023/12/11 07:00:59;;;;;;;14.80;8.10;;;;;;;-143.21;74.69;73307.81;5033385;28;20311;-78
2023/12/11 07:03:26;;;;;;;14.20;6.83;;;;;;;-143.21;73.72;73321.72;5032218;28;20205;-78
2023/12/11 07:05:53;;;;;;;10.40;5.93;;;;;;;-143.21;73.82;73325.69;5032692;28;20200;-77
2023/12/11 07:08:21;;;;;;;12.17;6.50;;;;;;;-143.21;74.04;73319.72;5033426;28;20213;-79
2023/12/11 07:10:47;;;;;;;12.80;7.33;;;;;;;-143.21;73.82;73313.78;5032911;28;20263;-78
2023/12/11 07:13:14;;;;;;;12.70;7.17;;;;;;;-143.21;73.04;73315.75;5032607;28;20255;-77
2023/12/11 07:15:41;;;;;;;15.13;8.40;;;;;;;-143.21;73.75;73315.75;5033430;28;20205;-77
2023/12/11 07:18:11;;;;;;;32.43;17.70;;;;;;;-143.21;73.91;73315.75;5032796;28;20200;-77
2023/12/11 07:20:38;;;;;;;42.27;23.63;;;;;;;-143.21;73.65;73293.94;5031811;28;20312;-78
2023/12/11 07:23:05;;;;;;;24.90;14.27;;;;;;;-143.21;73.39;73293.94;5033047;28;20205;-77
2023/12/11 07:25:32;;;;;;;21.70;11.97;;;;;;;-143.21;73.50;73291.94;5032619;28;20195;-78
2023/12/11 07:27:59;;;;;;;14.17;8.80;;;;;;;-143.21;72.81;73284.00;5032440;28;20222;-77
2023/12/11 07:30:27;;;;;;;13.83;6.93;;;;;;;-143.21;72.97;73289.97;5027076;28;20220;-77
2023/12/11 07:32:53;;;;;;;17.87;9.23;;;;;;;-143.21;72.63;73278.06;5032035;28;20200;-78
2023/12/11 07:35:22;;;;;;;14.50;8.80;;;;;;;-143.21;73.31;73282.03;5032311;28;20209;-78
2023/12/11 07:37:49;;;;;;;15.47;8.70;;;;;;;-143.21;72.73;73282.03;5031737;28;20226;-77
2023/12/11 07:40:16;;;;;;;17.17;9.60;;;;;;;-143.21;73.39;73291.94;5028161;28;20213;-77
2023/12/11 07:42:43;;;;;;;17.90;9.77;;;;;;;-143.21;73.07;73303.84;5033964;28;20260;-77
2023/12/11 07:45:11;;;;;;;16.57;8.30;;;;;;;-143.21;73.94;73311.78;5031697;28;20213;-78
2023/12/11 07:47:39;;;;;;;16.10;8.43;;;;;;;-143.21;73.83;73315.75;5031630;28;20223;-77
2023/12/11 07:50:07;;;;;;;13.47;7.77;;;;;;;-143.21;73.96;73317.75;5032391;28;20205;-84
2023/12/11 07:52:35;;;;;;;16.07;8.93;;;;;;;-143.21;73.94;73319.72;5033393;28;20206;-85
2023/12/11 07:55:02;;;;;;;18.00;9.47;;;;;;;-143.21;74.22;73309.81;5033107;28;20629;-85
2023/12/11 07:57:29;;;;;;;23.23;11.50;;;;;;;-143.21;74.06;73291.94;5029107;28;20267;-83
2023/12/11 07:59:57;;;;;;;21.03;10.73;;;;;;;-143.21;73.96;73286.00;5025925;28;20285;-87
2023/12/11 08:02:24;;;;;;;26.37;11.60;;;;;;;-143.21;73.30;73272.13;5022574;28;20649;-84
2023/12/11 08:04:51;;;;;;;11.93;7.40;;;;;;;-143.21;72.65;73274.09;5030953;28;20214;-85
2023/12/11 08:07:18;;;;;;;11.03;6.97;;;;;;;-143.21;71.90;73268.16;5032466;28;20228;-84
2023/12/11 08:09:47;;;;;;;14.90;7.80;;;;;;;-143.21;72.23;73260.22;5031970;28;20194;-83
2023/12/11 08:12:14;;;;;;;19.47;8.87;;;;;;;-143.21;71.89;73266.16;5032310;28;20336;-83
2023/12/11 08:14:41;;;;;;;19.23;9.27;;;;;;;-143.21;74.39;73268.16;5032104;28;20199;-87
2023/12/11 08:17:09;;;;;;;16.63;8.93;;;;;;;-143.21;74.51;73254.25;5032075;28;20208;-86
2023/12/11 08:19:36;;;;;;;20.23;10.00;;;;;;;-143.21;73.62;73236.41;5032760;28;20222;-88
2023/12/11 08:22:03;;;;;;;23.10;10.07;;;;;;;-143.21;72.74;73228.47;5033574;28;20244;-87
2023/12/11 08:24:30;;;;;;;16.00;8.73;;;;;;;-143.21;72.18;73222.53;5032433;28;20205;-84
2023/12/11 08:26:58;;;;;;;13.47;8.03;;;;;;;-143.21;71.54;73208.63;5031978;28;20226;-83
2023/12/11 08:29:26;;;;;;;15.70;7.43;;;;;;;-143.21;71.26;73190.78;5031267;28;20205;-83
2023/12/11 08:31:53;;;;;;;11.83;7.03;;;;;;;-143.21;70.88;73174.91;5029233;28;20199;-84
2023/12/11 08:34:20;;;;;;;9.47;5.93;;;;;;;-143.21;70.98;73165.00;5031436;28;20199;-83
2023/12/11 08:36:47;;;;;;;11.63;6.07;;;;;;;-143.21;70.76;73168.97;5032078;28;20187;-84
2023/12/11 08:39:14;;;;;;;10.83;6.10;;;;;;;-143.21;70.36;73161.03;5031950;28;20195;-83
2023/12/11 08:41:41;;;;;;;10.83;6.67;;;;;;;-143.21;69.92;73163.00;5032201;28;20205;-83
2023/12/11 08:44:09;;;;;;;13.10;7.70;;;;;;;-143.21;70.12;73165.00;5031737;28;20183;-83
2023/12/11 08:46:37;;;;;;;15.33;7.97;;;;;;;-143.21;69.89;73170.94;5032286;28;20641;-83
2023/12/11 08:49:04;;;;;;;12.87;7.00;;;;;;;-143.21;70.08;73155.06;5031493;28;20195;-84
2023/12/11 08:51:31;;;;;;;12.80;7.87;;;;;;;-143.21;69.70;73147.13;5031586;28;20286;-84
2023/12/11 08:53:58;;;;;;;14.23;8.40;;;;;;;-143.21;68.44;73127.31;5031713;28;20226;-83
2023/12/11 08:56:25;;;;;;;14.60;8.73;;;;;;;-143.21;68.49;73111.44;5032279;28;20198;-80
2023/12/11 08:58:52;;;;;;;15.27;7.70;;;;;;;-143.21;68.47;73103.50;5032141;28;20201;-80
2023/12/11 09:01:20;;;;;;;11.80;7.20;;;;;;;-143.21;68.37;73085.66;5031610;28;20197;-81
2023/12/11 09:03:48;;;;;;;14.03;8.10;;;;;;;-143.21;68.14;73097.56;5031991;28;20197;-84
2023/12/11 09:06:15;;;;;;;14.57;7.63;;;;;;;-143.21;66.73;73101.53;5031842;28;20673;-85
2023/12/11 09:08:42;;;;;;;13.37;6.83;;;;;;;-143.21;64.52;73133.25;5031482;28;20226;-83
2023/12/11 09:11:09;;;;;;;6.57;4.20;;;;;;;-143.21;62.71;73151.09;5032389;28;20274;-83
2023/12/11 09:13:36;;;;;;;9.20;4.80;;;;;;;-143.21;63.12;73155.06;5047917;28;20222;-83
2023/12/11 09:16:03;;;;;;;6.77;3.90;;;;;;;-143.21;63.01;73147.13;5038730;28;20213;-83
2023/12/11 09:18:32;;;;;;;5.83;3.60;;;;;;;-143.21;63.65;73168.97;5031891;28;20203;-83
2023/12/11 09:20:58;;;;;;;7.37;4.43;;;;;;;-143.21;63.63;73161.03;5032214;28;20281;-83
2023/12/11 09:23:25;;;;;;;7.37;4.23;;;;;;;-143.21;63.93;73161.03;5044030;28;20290;-82
2023/12/11 09:25:52;;;;;;;6.70;3.43;;;;;;;-143.21;64.01;73165.00;5035383;28;20187;-83
2023/12/11 09:28:19;;;;;;;7.90;3.77;;;;;;;-143.21;64.18;73166.97;5037842;28;20232;-83
2023/12/11 09:30:46;;;;;;;8.47;3.87;;;;;;;-143.21;63.76;73153.09;5031588;28;20195;-84
2023/12/11 09:33:13;;;;;;;8.37;3.60;;;;;;;-143.21;62.64;73139.22;5047561;28;20204;-83
2023/12/11 09:35:41;;;;;;;7.00;3.97;;;;;;;-143.21;63.30;73145.16;5051686;28;20185;-84
2023/12/11 09:38:10;;;;;;;10.50;4.37;;;;;;;-143.21;63.51;73127.31;5051171;28;20669;-83
2023/12/11 09:40:37;;;;;;;6.57;3.70;;;;;;;-143.21;63.01;73125.31;5026248;28;20591;-83
2023/12/11 09:43:04;;;;;;;7.03;4.10;;;;;;;-143.21;63.12;73131.28;5044205;28;20205;-83
2023/12/11 09:45:32;;;;;;;5.70;3.67;;;;;;;-143.21;62.69;73111.44;5036286;28;20198;-83
2023/12/11 09:48:00;;;;;;;6.43;3.73;;;;;;;-143.21;62.46;73085.66;5036110;28;20218;-83
2023/12/11 09:50:27;;;;;;;5.53;3.83;;;;;;;-143.21;61.52;73008.28;5022277;28;20209;-82
2023/12/11 09:52:57;;;;;;;6.43;3.70;;;;;;;-143.21;57.32;72831.75;5029437;28;20225;-83
2023/12/11 09:55:24;;;;;;;6.03;3.33;;;;;;;-143.21;50.50;72617.56;5035614;28;20625;-82
2023/12/11 09:57:52;;;;;;;7.07;3.50;;;;;;;-143.21;47.37;72452.94;5035134;28;20197;-83
2023/12/11 10:00:20;;;;;;;8.07;4.53;;;;;;;-143.21;43.58;72296.28;5036052;28;20260;-82
2023/12/11 10:02:50;;;;;;;7.43;4.20;;;;;;;-143.21;41.20;72109.84;5034767;28;20191;-83
2023/12/11 10:05:27;;;;;;;6.80;4.50;;;;;;;-143.21;38.10;71931.38;5035195;28;20195;-82
2023/12/11 10:07:56;;;;;;;7.03;4.87;;;;;;;-143.21;36.16;71746.97;5034910;28;20225;-83
2023/12/11 10:10:25;;;;;;;9.67;4.57;;;;;;;-143.21;34.70;71651.81;5042251;28;20281;-82
2023/12/11 10:12:52;;;;;;;10.33;5.53;;;;;;;-143.21;33.61;71582.41;5055056;28;20236;-83
2023/12/11 10:15:21;;;;;;;5.73;4.23;;;;;;;-143.21;31.93;71497.16;5047732;28;20294;-83
2023/12/11 10:18:01;;;;;;;10.40;4.70;;;;;;;-143.21;31.83;71566.56;5034897;28;20277;-83
2023/12/11 10:20:28;;;;;;;7.03;4.10;;;;;;;-143.21;32.22;71542.75;5042744;28;20182;-87
2023/12/11 10:22:58;;;;;;;9.40;5.23;;;;;;;-143.21;31.43;71479.31;5055014;28;20194;-87
2023/12/11 10:25:30;;;;;;;8.27;3.90;;;;;;;-143.21;30.97;71536.81;5055375;28;20226;-84
2023/12/11 10:28:10;;;;;;;10.77;5.47;;;;;;;-143.21;32.50;71661.72;5054106;28;20248;-85
2023/12/11 10:30:55;;;;;;;8.37;4.73;;;;;;;-143.21;33.31;71661.72;5055010;28;20289;-84
2023/12/11 10:33:24;;;;;;;8.47;4.40;;;;;;;-143.21;32.54;71633.97;5054502;28;20285;-84
2023/12/11 10:35:51;;;;;;;8.53;4.83;;;;;;;-143.21;32.44;71562.59;5036429;28;20201;-84
2023/12/11 10:38:23;;;;;;;6.83;4.10;;;;;;;-143.21;31.11;71435.69;5034686;28;20220;-84
2023/12/11 10:40:50;;;;;;;7.05;4.05;;;;;;;-143.21;30.42;71362.34;5034682;28;20653;-84
2023/12/11 10:43:20;;;;;;;7.85;4.65;;;;;;;-143.21;30.38;71372.25;5034445;28;20738;-84
2023/12/11 10:45:47;;;;;;;6.05;3.70;;;;;;;-143.21;30.03;71356.38;5034288;28;20662;-84
2023/12/11 10:48:14;;;;;;;7.70;3.85;;;;;;;-143.21;29.75;71292.94;5034776;28;20237;-84
2023/12/11 10:50:43;;;;;;;5.70;4.40;;;;;;;-143.21;29.26;71251.31;5034458;28;20226;-83
2023/12/11 10:53:10;;;;;;;8.23;4.25;;;;;;;-143.21;29.44;71251.31;5045202;28;20194;-82
2023/12/11 10:55:39;;;;;;;7.22;4.88;;;;;;;-143.21;29.20;71221.56;5053952;28;20190;-81
2023/12/11 10:58:08;;;;;;;5.93;4.03;;;;;;;-143.21;29.31;71253.28;5055085;28;20256;-90
2023/12/11 11:00:40;;;;;;;10.55;4.82;;;;;;;-143.21;29.25;71249.34;5054967;28;20198;-90
2023/12/11 11:03:10;;;;;;;6.95;4.47;;;;;;;-143.21;29.37;71249.34;5061506;28;20222;-90
2023/12/11 11:05:40;;;;;;;9.40;4.63;;;;;;;-143.21;28.97;71160.13;5066966;28;20229;-90
2023/12/11 11:08:21;;;;;;;8.60;5.03;;;;;;;-143.21;28.47;71114.53;5061665;28;20250;-85
2023/12/11 11:10:55;;;;;;;4.93;4.22;;;;;;;-143.21;28.04;71096.69;5043253;28;20195;-90